createdAt,value
2023-03-01T00:03:39.981Z,-5.62
2023-03-01T00:07:42.879Z,-5.74
2023-03-01T00:11:44.781Z,-5.65
2023-03-01T00:15:46.219Z,-5.68
2023-03-01T00:19:47.702Z,-5.74
2023-03-01T00:23:50.692Z,-5.86
2023-03-01T00:27:52.401Z,-5.88
2023-03-01T00:31:53.873Z,-6.05
2023-03-01T00:35:55.481Z,-6.13
2023-03-01T00:39:58.256Z,-6.03
2023-03-01T00:43:59.705Z,-6.08
2023-03-01T00:48:01.167Z,-6.21
2023-03-01T00:52:02.672Z,-6.18
2023-03-01T00:56:07.493Z,-6.24
2023-03-01T01:00:10.217Z,-6.12
2023-03-01T01:04:13.885Z,-6.20
2023-03-01T01:08:15.345Z,-5.91
2023-03-01T01:12:18.187Z,-5.86
2023-03-01T01:16:21.335Z,-6.06
2023-03-01T01:20:22.806Z,-6.19
2023-03-01T01:24:24.406Z,-6.31
2023-03-01T01:28:27.206Z,-6.41
2023-03-01T01:32:29.555Z,-6.20
2023-03-01T01:36:31.490Z,-6.26
2023-03-01T01:40:33.161Z,-6.31
2023-03-01T01:44:36.280Z,-6.37
2023-03-01T01:48:42.612Z,-6.26
2023-03-01T01:52:44.176Z,-6.27
2023-03-01T01:56:49.891Z,-6.37
2023-03-01T02:00:53.625Z,-6.14
2023-03-01T02:05:07.342Z,-6.24
2023-03-01T02:09:13.752Z,-6.40
2023-03-01T02:13:15.569Z,-6.35
2023-03-01T02:17:19.789Z,-6.24
2023-03-01T02:21:43.596Z,-6.37
2023-03-01T02:25:51.416Z,-6.29
2023-03-01T02:29:55.702Z,-6.25
2023-03-01T02:33:58.782Z,-6.34
2023-03-01T02:38:01.936Z,-6.27
2023-03-01T02:42:04.858Z,-6.01
2023-03-01T02:46:09.846Z,-6.24
2023-03-01T02:50:22.595Z,-6.23
2023-03-01T02:54:25.762Z,-6.39
2023-03-01T02:58:27.375Z,-6.68
2023-03-01T03:02:31.281Z,-6.80
2023-03-01T03:06:33.138Z,-6.74
2023-03-01T03:10:37.630Z,-6.87
2023-03-01T03:14:39.081Z,-7.02
2023-03-01T03:18:41.874Z,-6.94
2023-03-01T03:22:43.347Z,-6.76
2023-03-01T03:26:44.782Z,-6.74
2023-03-01T03:30:46.310Z,-6.75
2023-03-01T03:34:49.212Z,-6.88
2023-03-01T03:38:50.846Z,-6.86
2023-03-01T03:42:52.281Z,-6.96
2023-03-01T03:46:53.699Z,-6.98
2023-03-01T03:50:57.282Z,-6.83
2023-03-01T03:54:58.754Z,-6.69
2023-03-01T03:59:00.173Z,-6.77
2023-03-01T04:03:01.640Z,-6.89
2023-03-01T04:07:04.514Z,-7.08
2023-03-01T04:11:07.050Z,-7.22
2023-03-01T04:15:08.858Z,-7.31
2023-03-01T04:19:10.287Z,-7.39
2023-03-01T04:23:14.622Z,-7.50
2023-03-01T04:27:16.056Z,-7.57
2023-03-01T04:31:19.920Z,-7.61
2023-03-01T04:35:21.361Z,-7.59
2023-03-01T04:39:24.123Z,-7.49
2023-03-01T04:43:25.543Z,-7.57
2023-03-01T04:47:26.999Z,-7.67
2023-03-01T04:51:28.529Z,-7.70
2023-03-01T04:55:31.458Z,-7.64
2023-03-01T04:59:33.096Z,-7.55
2023-03-01T05:03:34.509Z,-7.42
2023-03-01T05:07:35.947Z,-7.61
2023-03-01T05:11:38.806Z,-7.72
2023-03-01T05:15:40.560Z,-7.73
2023-03-01T05:19:42.037Z,-7.75
2023-03-01T05:23:43.532Z,-7.61
2023-03-01T05:27:46.306Z,-7.50
2023-03-01T05:31:47.769Z,-7.61
2023-03-01T05:35:50.840Z,-7.67
2023-03-01T05:39:52.355Z,-7.73
2023-03-01T05:43:55.114Z,-7.60
2023-03-01T05:47:56.550Z,-7.52
2023-03-01T05:51:57.979Z,-7.65
2023-03-01T05:55:59.417Z,-7.73
2023-03-01T06:00:02.298Z,-7.16
2023-03-01T06:04:04.739Z,-7.22
2023-03-01T06:08:06.804Z,-7.48
2023-03-01T06:12:08.392Z,-7.54
2023-03-01T06:16:12.087Z,-7.61
2023-03-01T06:20:15.805Z,-7.65
2023-03-01T06:24:17.255Z,-7.65
2023-03-01T06:28:18.801Z,-7.73
2023-03-01T06:32:21.638Z,-7.60
2023-03-01T06:36:23.105Z,-7.50
2023-03-01T06:40:24.602Z,-7.32
2023-03-01T06:44:26.269Z,-7.23
2023-03-01T06:48:29.047Z,-7.12
2023-03-01T06:52:31.746Z,-6.92
2023-03-01T06:56:34.074Z,-6.70
2023-03-01T07:00:35.679Z,-6.63
2023-03-01T07:04:38.571Z,-6.53
2023-03-01T07:08:40.262Z,-6.44
2023-03-01T07:12:41.757Z,-6.32
2023-03-01T07:16:43.278Z,-6.14
2023-03-01T07:20:46.083Z,-5.97
2023-03-01T07:24:47.554Z,-5.52
2023-03-01T07:28:49.075Z,-5.30
2023-03-01T07:32:50.647Z,-5.13
2023-03-01T07:36:53.554Z,-4.97
2023-03-01T07:40:58.557Z,-4.92
2023-03-01T07:44:59.994Z,-4.79
2023-03-01T07:49:01.468Z,-4.58
2023-03-01T07:53:04.318Z,-4.54
2023-03-01T07:57:05.758Z,-4.41
2023-03-01T08:01:09.356Z,-4.21
2023-03-01T08:05:11.284Z,-4.03
2023-03-01T08:09:14.108Z,-4.08
2023-03-01T08:13:15.552Z,-4.03
2023-03-01T08:17:17.157Z,-4.00
2023-03-01T08:21:19.683Z,-3.81
2023-03-01T08:25:22.468Z,-3.61
2023-03-01T08:29:24.299Z,-3.37
2023-03-01T08:33:25.766Z,-3.25
2023-03-01T08:37:27.317Z,-3.14
2023-03-01T08:41:30.401Z,-2.88
2023-03-01T08:45:31.920Z,-2.84
2023-03-01T08:49:33.604Z,-2.66
2023-03-01T08:53:35.141Z,-2.47
2023-03-01T08:57:37.895Z,-2.30
2023-03-01T09:01:39.881Z,-2.16
2023-03-01T09:05:41.309Z,-1.87
2023-03-01T09:09:42.811Z,-1.84
2023-03-01T09:13:46.847Z,-1.56
2023-03-01T09:17:48.340Z,-1.51
2023-03-01T09:21:49.826Z,-1.41
2023-03-01T09:25:51.243Z,-1.27
2023-03-01T09:29:54.022Z,-0.99
2023-03-01T09:33:55.906Z,-1.01
2023-03-01T09:37:57.336Z,-0.71
2023-03-01T09:42:03.801Z,-0.79
2023-03-01T09:46:09.070Z,-0.51
2023-03-01T09:50:13.968Z,-0.07
2023-03-01T09:54:15.542Z,-0.09
2023-03-01T09:58:35.287Z,-0.01
2023-03-01T10:02:44.582Z,-0.02
2023-03-01T10:06:56.862Z,0.13
2023-03-01T10:10:58.476Z,0.17
2023-03-01T10:15:06.328Z,0.11
2023-03-01T10:19:13.420Z,0.21
2023-03-01T10:23:15.044Z,0.41
2023-03-01T10:27:21.819Z,0.65
2023-03-01T10:31:26.759Z,0.81
2023-03-01T10:35:33.602Z,0.77
2023-03-01T10:39:35.763Z,0.79
2023-03-01T10:43:45.199Z,0.96
2023-03-01T10:47:46.668Z,1.02
2023-03-01T10:51:52.252Z,1.10
2023-03-01T10:55:59.854Z,1.39
2023-03-01T11:00:15.733Z,1.29
2023-03-01T11:04:17.217Z,1.26
2023-03-01T11:08:33.783Z,1.59
2023-03-01T11:12:36.378Z,2.00
2023-03-01T11:16:39.667Z,1.78
2023-03-01T11:20:42.259Z,1.89
2023-03-01T11:24:57.257Z,1.94
2023-03-01T11:29:07.140Z,2.09
2023-03-01T11:33:19.959Z,2.20
2023-03-01T11:37:29.784Z,2.31
2023-03-01T11:41:35.297Z,2.28
2023-03-01T11:45:48.446Z,2.32
2023-03-01T11:50:16.979Z,2.45
2023-03-01T11:54:29.440Z,2.38
2023-03-01T11:58:40.331Z,2.42
2023-03-01T12:03:02.304Z,2.50
2023-03-01T12:07:11.645Z,2.51
2023-03-01T12:11:26.936Z,2.63
2023-03-01T12:15:45.871Z,2.38
2023-03-01T12:20:10.361Z,2.63
2023-03-01T12:24:37.470Z,2.35
2023-03-01T12:29:01.137Z,2.36
2023-03-01T12:33:18.496Z,2.43
2023-03-01T12:37:30.390Z,2.48
2023-03-01T12:41:44.350Z,2.69
2023-03-01T12:45:57.402Z,2.61
2023-03-01T12:50:05.679Z,3.10
2023-03-01T12:54:15.999Z,3.22
2023-03-01T12:58:25.050Z,3.38
2023-03-01T13:02:33.306Z,2.82
2023-03-01T13:06:46.103Z,3.04
2023-03-01T13:10:51.221Z,3.24
2023-03-01T13:14:55.163Z,5.46
2023-03-01T13:19:09.627Z,5.09
2023-03-01T13:23:24.468Z,5.35
2023-03-01T13:27:25.946Z,4.77
2023-03-01T13:32:01.005Z,4.98
2023-03-01T13:36:02.723Z,5.32
2023-03-01T13:40:45.587Z,5.04
2023-03-01T13:44:48.465Z,5.47
2023-03-01T13:48:53.228Z,4.99
2023-03-01T13:52:58.603Z,5.00
2023-03-01T13:57:02.588Z,3.69
2023-03-01T14:01:08.307Z,3.40
2023-03-01T14:05:10.482Z,3.39
2023-03-01T14:09:23.665Z,3.19
2023-03-01T14:13:39.888Z,3.12
2023-03-01T14:18:03.372Z,3.20
2023-03-01T14:22:17.525Z,3.52
2023-03-01T14:26:22.117Z,3.66
2023-03-01T14:30:26.572Z,3.74
2023-03-01T14:34:29.369Z,3.47
2023-03-01T14:38:34.877Z,3.22
2023-03-01T14:42:37.531Z,3.14
2023-03-01T14:46:41.813Z,3.17
2023-03-01T14:50:45.956Z,3.28
2023-03-01T14:54:50.093Z,3.20
2023-03-01T14:59:00.142Z,3.16
2023-03-01T15:03:06.260Z,3.11
2023-03-01T15:07:13.726Z,3.15
2023-03-01T15:11:22.119Z,3.15
2023-03-01T15:15:37.138Z,3.10
2023-03-01T15:19:38.900Z,3.01
2023-03-01T15:23:41.838Z,3.00
2023-03-01T15:27:46.941Z,2.77
2023-03-01T15:31:56.288Z,2.79
2023-03-01T15:35:59.505Z,2.86
2023-03-01T15:40:02.410Z,2.67
2023-03-01T15:44:16.459Z,2.68
2023-03-01T15:48:20.387Z,2.71
2023-03-01T15:52:25.958Z,2.49
2023-03-01T15:56:28.973Z,2.36
2023-03-01T16:00:30.866Z,2.17
2023-03-01T16:04:32.390Z,1.98
2023-03-01T16:08:33.956Z,1.86
2023-03-01T16:12:36.718Z,1.67
2023-03-01T16:16:38.245Z,1.46
2023-03-01T16:20:40.673Z,1.39
2023-03-01T16:24:42.122Z,1.14
2023-03-01T16:28:46.108Z,0.97
2023-03-01T16:32:49.545Z,0.92
2023-03-01T16:36:51.095Z,0.80
2023-03-01T16:40:52.850Z,0.68
2023-03-01T16:44:56.974Z,0.50
2023-03-01T16:48:58.440Z,0.34
2023-03-01T16:52:59.877Z,0.21
2023-03-01T16:57:01.341Z,0.10
2023-03-01T17:01:10.195Z,-0.09
2023-03-01T17:05:11.771Z,-0.10
2023-03-01T17:09:13.908Z,-0.05
2023-03-01T17:13:15.797Z,-0.10
2023-03-01T17:17:18.640Z,-0.11
2023-03-01T17:21:20.160Z,-0.34
2023-03-01T17:25:21.597Z,-0.48
2023-03-01T17:29:23.073Z,-0.56
2023-03-01T17:33:25.938Z,-0.71
2023-03-01T17:37:27.375Z,-0.81
2023-03-01T17:41:29.045Z,-0.81
2023-03-01T17:45:30.757Z,-0.76
2023-03-01T17:49:33.620Z,-0.83
2023-03-01T17:53:35.818Z,-1.06
2023-03-01T17:57:39.609Z,-1.29
2023-03-01T18:01:42.151Z,-1.38
2023-03-01T18:05:45.024Z,-1.59
2023-03-01T18:09:46.460Z,-1.69
2023-03-01T18:13:48.398Z,-1.82
2023-03-01T18:17:49.856Z,-2.03
2023-03-01T18:21:52.624Z,-2.17
2023-03-01T18:25:58.577Z,-2.32
2023-03-01T18:30:00.005Z,-2.37
2023-03-01T18:34:01.504Z,-2.21
2023-03-01T18:38:04.575Z,-2.29
2023-03-01T18:42:06.138Z,-2.33
2023-03-01T18:46:07.732Z,-2.42
2023-03-01T18:50:10.231Z,-2.47
2023-03-01T18:54:13.170Z,-1.97
2023-03-01T18:58:14.631Z,-1.84
2023-03-01T19:02:16.201Z,-1.99
2023-03-01T19:06:19.040Z,-2.12
2023-03-01T19:10:21.872Z,-2.18
2023-03-01T19:14:23.454Z,-2.03
2023-03-01T19:18:25.010Z,-2.07
2023-03-01T19:22:27.323Z,-2.22
2023-03-01T19:26:31.684Z,-2.45
2023-03-01T19:30:33.370Z,-2.87
2023-03-01T19:34:34.963Z,-3.09
2023-03-01T19:38:37.544Z,-3.16
2023-03-01T19:42:40.363Z,-3.26
2023-03-01T19:46:42.016Z,-3.15
2023-03-01T19:50:43.899Z,-3.01
2023-03-01T19:54:45.421Z,-3.06
2023-03-01T19:58:48.616Z,-3.14
2023-03-01T20:02:50.154Z,-3.26
2023-03-01T20:06:51.657Z,-3.36
2023-03-01T20:10:53.111Z,-3.30
2023-03-01T20:14:56.063Z,-3.33
2023-03-01T20:18:59.834Z,-3.19
2023-03-01T20:23:01.378Z,-3.07
2023-03-01T20:27:02.889Z,-2.94
2023-03-01T20:31:07.868Z,-3.06
2023-03-01T20:35:10.455Z,-3.14
2023-03-01T20:39:11.912Z,-3.13
2023-03-01T20:43:13.327Z,-3.08
2023-03-01T20:47:16.154Z,-3.01
2023-03-01T20:51:18.063Z,-2.88
2023-03-01T20:55:19.520Z,-2.84
2023-03-01T20:59:21.146Z,-2.83
2023-03-01T21:03:24.081Z,-2.95
2023-03-01T21:07:25.542Z,-3.02
2023-03-01T21:11:27.103Z,-2.94
2023-03-01T21:15:29.721Z,-3.04
2023-03-01T21:19:36.232Z,-3.12
2023-03-01T21:23:39.462Z,-3.21
2023-03-01T21:27:40.915Z,-3.34
2023-03-01T21:31:42.411Z,-3.14
2023-03-01T21:35:45.248Z,-3.39
2023-03-01T21:39:46.708Z,-3.52
2023-03-01T21:43:49.673Z,-3.52
2023-03-01T21:47:51.120Z,-3.45
2023-03-01T21:51:53.942Z,-3.50
2023-03-01T21:55:55.432Z,-3.48
2023-03-01T21:59:56.872Z,-3.48
2023-03-01T22:04:00.139Z,-3.39
2023-03-01T22:08:02.953Z,-3.26
2023-03-01T22:12:04.885Z,-3.19
2023-03-01T22:16:06.836Z,-3.07
2023-03-01T22:20:09.839Z,-3.18
2023-03-01T22:24:13.015Z,-3.29
2023-03-01T22:28:14.520Z,-3.43
2023-03-01T22:32:16.150Z,-3.51
2023-03-01T22:36:17.896Z,-3.57
2023-03-01T22:40:20.804Z,-3.72
2023-03-01T22:44:23.933Z,-3.82
2023-03-01T22:48:26.263Z,-4.02
2023-03-01T22:52:27.697Z,-4.13
2023-03-01T22:56:33.003Z,-4.14
2023-03-01T23:00:34.648Z,-4.23
2023-03-01T23:04:36.153Z,-4.13
2023-03-01T23:08:37.763Z,-3.97
2023-03-01T23:12:41.260Z,-3.89
2023-03-01T23:16:42.891Z,-3.90
2023-03-01T23:20:44.340Z,-4.08
2023-03-01T23:24:45.995Z,-4.35
2023-03-01T23:28:48.970Z,-4.45
2023-03-01T23:32:50.393Z,-4.38
2023-03-01T23:36:52.843Z,-4.35
2023-03-01T23:40:54.283Z,-4.36
2023-03-01T23:44:57.114Z,-4.23
2023-03-01T23:48:59.000Z,-4.32
2023-03-01T23:53:00.407Z,-4.41
2023-03-01T23:57:01.879Z,-4.38
